Terminal Aerodrome Forecast
Issued by NWS Cleveland, OH

Home | Current Version | Previous Version | Text Only | Print | Product List | Glossary On
Versions: 1 2 3 4 5 6 7 8 9 10 11 12 13 14 15
041
FTUS41 KCLE 222351 AAB
TAFTOL
TAF AMD
KTOL 222351Z 2300/2324 21010KT P6SM SCT060
     FM230700 21010KT P6SM BKN025 OVC060
     FM230900 21012KT 5SM -SHRA VCTS BKN015CB OVC025
     FM231600 24012KT P6SM -SHRA VCTS BKN015CB OVC025
     FM232000 29008KT P6SM BKN025 OVC045=

USA.gov is the U.S. government's official web portal to all federal, state and local government web resources and services.